createdAt,value
2023-02-11T00:00:43.519Z,100.00
2023-02-11T00:03:11.769Z,100.00
2023-02-11T00:05:40.107Z,100.00
2023-02-11T00:08:08.383Z,100.00
2023-02-11T00:10:36.655Z,100.00
2023-02-11T00:13:04.934Z,100.00
2023-02-11T00:15:33.222Z,100.00
2023-02-11T00:18:02.821Z,100.00
2023-02-11T00:20:31.068Z,100.00
2023-02-11T00:22:59.464Z,100.00
2023-02-11T00:25:27.714Z,100.00
2023-02-11T00:27:55.985Z,100.00
2023-02-11T00:30:24.505Z,100.00
2023-02-11T00:32:52.847Z,100.00
2023-02-11T00:35:22.451Z,100.00
2023-02-11T00:37:50.705Z,100.00
2023-02-11T00:40:19.034Z,100.00
2023-02-11T00:42:47.422Z,100.00
2023-02-11T00:45:15.663Z,100.00
2023-02-11T00:47:44.085Z,100.00
2023-02-11T00:50:12.320Z,100.00
2023-02-11T00:52:41.952Z,100.00
2023-02-11T00:55:10.517Z,100.00
2023-02-11T00:57:38.915Z,100.00
2023-02-11T01:00:08.983Z,100.00
2023-02-11T01:02:37.243Z,100.00
2023-02-11T01:05:06.274Z,100.00
2023-02-11T01:07:34.596Z,100.00
2023-02-11T01:10:04.402Z,100.00
2023-02-11T01:12:35.942Z,100.00
2023-02-11T01:15:06.062Z,100.00
2023-02-11T01:17:34.746Z,100.00
2023-02-11T01:20:04.085Z,100.00
2023-02-11T01:22:32.507Z,100.00
2023-02-11T01:25:00.876Z,100.00
2023-02-11T01:27:30.732Z,100.00
2023-02-11T01:29:59.422Z,100.00
2023-02-11T01:32:27.777Z,100.00
2023-02-11T01:34:56.214Z,100.00
2023-02-11T01:37:24.552Z,100.00
2023-02-11T01:39:52.951Z,100.00
2023-02-11T01:42:22.682Z,100.00
2023-02-11T01:44:53.472Z,100.00
2023-02-11T01:47:22.407Z,100.00
2023-02-11T01:49:53.193Z,100.00
2023-02-11T01:52:25.058Z,100.00
2023-02-11T01:55:26.093Z,100.00
2023-02-11T01:57:59.368Z,100.00
2023-02-11T02:00:34.344Z,100.00
2023-02-11T02:03:06.665Z,100.00
2023-02-11T02:05:38.308Z,100.00
2023-02-11T02:08:11.447Z,100.00
2023-02-11T02:10:42.640Z,100.00
2023-02-11T02:13:10.980Z,100.00
2023-02-11T02:15:42.713Z,100.00
2023-02-11T02:18:20.753Z,100.00
2023-02-11T02:21:23.630Z,100.00
2023-02-11T02:24:04.198Z,100.00
2023-02-11T02:26:47.147Z,100.00
2023-02-11T02:29:41.059Z,100.00
2023-02-11T02:32:29.486Z,100.00
2023-02-11T02:35:03.227Z,100.00
2023-02-11T02:37:34.684Z,100.00
2023-02-11T02:40:06.556Z,100.00
2023-02-11T02:42:35.025Z,100.00
2023-02-11T02:45:03.333Z,100.00
2023-02-11T02:47:33.070Z,100.00
2023-02-11T02:50:01.417Z,100.00
2023-02-11T02:52:36.886Z,100.00
2023-02-11T02:55:15.834Z,100.00
2023-02-11T02:57:59.325Z,100.00
2023-02-11T03:00:33.243Z,100.00
2023-02-11T03:03:17.202Z,100.00
2023-02-11T03:05:51.414Z,100.00
2023-02-11T03:08:25.617Z,100.00
2023-02-11T03:10:54.828Z,100.00
2023-02-11T03:13:26.338Z,100.00
2023-02-11T03:15:56.942Z,100.00
2023-02-11T03:18:27.384Z,100.00
2023-02-11T03:20:56.248Z,100.00
2023-02-11T03:23:28.261Z,100.00
2023-02-11T03:25:59.872Z,100.00
2023-02-11T03:28:31.974Z,100.00
2023-02-11T03:31:11.119Z,100.00
2023-02-11T03:33:44.964Z,100.00
2023-02-11T03:36:17.668Z,100.00
2023-02-11T03:38:49.385Z,100.00
2023-02-11T03:41:19.268Z,100.00
2023-02-11T03:43:50.084Z,100.00
2023-02-11T03:46:21.065Z,100.00
2023-02-11T03:48:52.835Z,100.00
2023-02-11T03:51:22.302Z,100.00
2023-02-11T03:53:51.032Z,100.00
2023-02-11T03:56:22.034Z,100.00
2023-02-11T03:58:50.497Z,100.00
2023-02-11T04:01:18.881Z,100.00
2023-02-11T04:03:47.189Z,100.00
2023-02-11T04:06:16.828Z,100.00
2023-02-11T04:08:45.137Z,100.00
2023-02-11T04:11:13.378Z,100.00
2023-02-11T04:13:41.693Z,100.00
2023-02-11T04:16:10.103Z,100.00
2023-02-11T04:18:38.441Z,100.00
2023-02-11T04:21:07.097Z,100.00
2023-02-11T04:23:36.764Z,100.00
2023-02-11T04:26:05.185Z,100.00
2023-02-11T04:28:33.784Z,100.00
2023-02-11T04:31:02.106Z,100.00
2023-02-11T04:33:30.394Z,100.00
2023-02-11T04:35:58.665Z,100.00
2023-02-11T04:38:27.386Z,100.00
2023-02-11T04:40:57.020Z,100.00
2023-02-11T04:43:25.252Z,100.00
2023-02-11T04:45:53.684Z,100.00
2023-02-11T04:48:22.117Z,100.00
2023-02-11T04:50:50.359Z,100.00
2023-02-11T04:53:18.663Z,100.00
2023-02-11T04:55:50.201Z,100.00
2023-02-11T04:58:20.570Z,100.00
2023-02-11T05:00:49.044Z,100.00
2023-02-11T05:03:17.502Z,100.00
2023-02-11T05:05:45.846Z,100.00
2023-02-11T05:08:14.206Z,100.00
2023-02-11T05:10:47.172Z,100.00
2023-02-11T05:13:15.682Z,100.00
2023-02-11T05:15:45.413Z,100.00
2023-02-11T05:18:14.906Z,100.00
2023-02-11T05:20:43.429Z,100.00
2023-02-11T05:23:12.039Z,100.00
2023-02-11T05:25:40.741Z,100.00
2023-02-11T05:28:09.134Z,100.00
2023-02-11T05:30:37.583Z,100.00
2023-02-11T05:33:07.722Z,100.00
2023-02-11T05:35:36.069Z,100.00
2023-02-11T05:38:04.426Z,100.00
2023-02-11T05:40:32.831Z,100.00
2023-02-11T05:43:01.160Z,100.00
2023-02-11T05:45:29.501Z,100.00
2023-02-11T05:47:58.414Z,100.00
2023-02-11T05:50:28.118Z,100.00
2023-02-11T05:52:56.475Z,100.00
2023-02-11T05:55:25.015Z,100.00
2023-02-11T05:57:53.427Z,100.00
2023-02-11T06:00:21.792Z,100.00
2023-02-11T06:02:50.183Z,100.00
2023-02-11T06:05:18.574Z,100.00
2023-02-11T06:07:48.298Z,100.00
2023-02-11T06:10:16.762Z,100.00
2023-02-11T06:12:45.225Z,100.00
2023-02-11T06:15:13.645Z,100.00
2023-02-11T06:17:41.946Z,100.00
2023-02-11T06:20:11.168Z,100.00
2023-02-11T06:22:39.533Z,100.00
2023-02-11T06:25:11.057Z,100.00
2023-02-11T06:27:39.903Z,100.00
2023-02-11T06:30:09.820Z,100.00
2023-02-11T06:32:46.096Z,100.00
2023-02-11T06:35:15.239Z,100.00
2023-02-11T06:37:43.834Z,100.00
2023-02-11T06:40:14.198Z,100.00
2023-02-11T06:42:42.549Z,100.00
2023-02-11T06:45:13.207Z,100.00
2023-02-11T06:47:42.038Z,100.00
2023-02-11T06:50:13.234Z,100.00
2023-02-11T06:52:41.616Z,100.00
2023-02-11T06:55:11.017Z,100.00
2023-02-11T06:57:40.937Z,100.00
2023-02-11T07:00:10.625Z,100.00
2023-02-11T07:02:38.998Z,100.00
2023-02-11T07:05:07.904Z,100.00
2023-02-11T07:07:36.259Z,100.00
2023-02-11T07:10:05.908Z,100.00
2023-02-11T07:12:34.263Z,100.00
2023-02-11T07:15:04.069Z,100.00
2023-02-11T07:17:32.406Z,100.00
2023-02-11T07:20:00.736Z,100.00
2023-02-11T07:22:29.000Z,100.00
2023-02-11T07:24:57.384Z,100.00
2023-02-11T07:27:25.694Z,100.00
2023-02-11T07:29:54.024Z,100.00
2023-02-11T07:32:23.715Z,100.00
2023-02-11T07:34:52.217Z,100.00
2023-02-11T07:37:20.715Z,100.00
2023-02-11T07:39:49.055Z,100.00
2023-02-11T07:42:17.551Z,98.07
2023-02-11T07:44:47.054Z,100.00
2023-02-11T07:47:16.345Z,100.00
2023-02-11T07:49:46.657Z,100.00
2023-02-11T07:52:14.933Z,93.99
2023-02-11T07:54:43.302Z,100.00
2023-02-11T07:57:11.738Z,99.71
2023-02-11T07:59:40.072Z,94.13
2023-02-11T08:02:08.431Z,80.74
2023-02-11T08:04:36.767Z,77.65
2023-02-11T08:07:06.894Z,83.14
2023-02-11T08:09:35.192Z,86.93
2023-02-11T08:12:03.554Z,84.86
2023-02-11T08:14:32.797Z,78.95
2023-02-11T08:17:01.163Z,71.26
2023-02-11T08:19:29.503Z,66.84
2023-02-11T08:21:58.521Z,70.72
2023-02-11T08:24:28.184Z,69.56
2023-02-11T08:26:56.565Z,69.22
2023-02-11T08:29:25.152Z,70.24
2023-02-11T08:31:53.539Z,78.50
2023-02-11T08:34:22.122Z,74.22
2023-02-11T08:36:50.422Z,71.13
2023-02-11T08:39:21.065Z,75.78
2023-02-11T08:41:52.329Z,73.61
2023-02-11T08:44:21.570Z,68.28
2023-02-11T08:46:50.575Z,70.80
2023-02-11T08:49:19.022Z,72.27
2023-02-11T08:51:47.615Z,71.32
2023-02-11T08:54:16.348Z,72.83
2023-02-11T08:56:44.854Z,70.31
2023-02-11T08:59:17.732Z,68.22
2023-02-11T09:01:47.342Z,66.70
2023-02-11T09:04:15.886Z,65.11
2023-02-11T09:06:44.207Z,66.53
2023-02-11T09:09:14.599Z,63.35
2023-02-11T09:11:43.888Z,61.95
2023-02-11T09:14:18.370Z,63.83
2023-02-11T09:16:46.824Z,62.56
2023-02-11T09:19:15.223Z,61.40
2023-02-11T09:21:43.561Z,61.31
2023-02-11T09:24:12.619Z,59.78
2023-02-11T09:26:43.938Z,60.01
2023-02-11T09:29:15.217Z,59.59
2023-02-11T09:31:43.711Z,59.31
2023-02-11T09:34:12.873Z,58.23
2023-02-11T09:36:41.865Z,57.22
2023-02-11T09:39:14.366Z,58.73
2023-02-11T09:42:17.467Z,60.24
2023-02-11T09:44:48.051Z,60.86
2023-02-11T09:47:23.285Z,61.54
2023-02-11T09:49:54.503Z,61.59
2023-02-11T09:52:27.347Z,61.70
2023-02-11T09:54:57.496Z,61.00
2023-02-11T09:57:29.341Z,62.89
2023-02-11T09:59:59.198Z,64.23
2023-02-11T10:02:32.007Z,60.41
2023-02-11T10:05:23.992Z,58.83
2023-02-11T10:07:58.385Z,57.53
2023-02-11T10:10:40.052Z,57.15
2023-02-11T10:13:42.406Z,57.60
2023-02-11T10:16:26.407Z,59.38
2023-02-11T10:19:14.126Z,61.19
2023-02-11T10:21:53.008Z,61.50
2023-02-11T10:24:21.548Z,63.32
2023-02-11T10:26:50.350Z,62.91
2023-02-11T10:29:35.421Z,63.42
2023-02-11T10:32:12.205Z,60.37
2023-02-11T10:34:42.599Z,59.82
2023-02-11T10:37:13.009Z,59.22
2023-02-11T10:39:41.969Z,55.19
2023-02-11T10:42:12.624Z,54.97
2023-02-11T10:44:41.315Z,55.87
2023-02-11T10:47:15.337Z,58.51
2023-02-11T10:49:45.024Z,58.69
2023-02-11T10:52:20.592Z,58.78
2023-02-11T10:55:00.313Z,61.09
2023-02-11T10:57:31.603Z,57.50
2023-02-11T11:00:01.824Z,58.17
2023-02-11T11:02:34.500Z,57.73
2023-02-11T11:05:05.291Z,57.59
2023-02-11T11:07:34.879Z,58.39
2023-02-11T11:10:05.182Z,56.83
2023-02-11T11:12:36.666Z,59.38
2023-02-11T11:15:18.829Z,58.54
2023-02-11T11:17:48.758Z,56.93
2023-02-11T11:20:22.297Z,54.34
2023-02-11T11:22:52.478Z,52.76
2023-02-11T11:25:26.325Z,52.02
2023-02-11T11:27:56.692Z,53.99
2023-02-11T11:30:27.231Z,56.76
2023-02-11T11:32:57.433Z,52.98
2023-02-11T11:35:27.675Z,52.52
2023-02-11T11:38:01.247Z,54.13
2023-02-11T11:40:31.267Z,53.90
2023-02-11T11:43:08.651Z,54.74
2023-02-11T11:45:37.153Z,55.19
2023-02-11T11:48:11.586Z,55.97
2023-02-11T11:50:43.409Z,52.68
2023-02-11T11:53:16.259Z,52.02
2023-02-11T11:55:46.642Z,49.42
2023-02-11T11:58:17.551Z,49.66
2023-02-11T12:00:54.570Z,50.45
2023-02-11T12:04:04.587Z,51.77
2023-02-11T12:06:41.167Z,51.29
2023-02-11T12:09:17.684Z,52.82
2023-02-11T12:12:01.255Z,53.81
2023-02-11T12:14:36.720Z,52.24
2023-02-11T12:17:08.820Z,53.45
2023-02-11T12:20:04.607Z,53.00
2023-02-11T12:22:40.179Z,54.56
2023-02-11T12:25:23.615Z,53.59
2023-02-11T12:27:59.070Z,53.18
2023-02-11T12:30:47.746Z,50.39
2023-02-11T12:33:26.978Z,54.31
2023-02-11T12:36:01.121Z,56.46
2023-02-11T12:38:40.750Z,53.49
2023-02-11T12:41:40.571Z,53.59
2023-02-11T12:44:09.393Z,58.17
2023-02-11T12:46:42.149Z,56.59
2023-02-11T12:49:28.788Z,57.63
2023-02-11T12:52:09.431Z,58.03
2023-02-11T12:54:42.493Z,56.02
2023-02-11T12:57:18.142Z,56.39
2023-02-11T12:59:56.366Z,58.21
2023-02-11T13:02:31.166Z,57.67
2023-02-11T13:05:05.096Z,58.68
2023-02-11T13:07:38.691Z,59.69
2023-02-11T13:10:17.626Z,54.85
2023-02-11T13:13:04.895Z,53.86
2023-02-11T13:15:33.316Z,55.41
2023-02-11T13:18:06.997Z,54.97
2023-02-11T13:20:41.293Z,56.21
2023-02-11T13:23:18.425Z,56.24
2023-02-11T13:25:51.382Z,55.91
2023-02-11T13:28:27.265Z,55.34
2023-02-11T13:31:02.761Z,55.40
2023-02-11T13:33:36.280Z,54.23
2023-02-11T13:36:23.208Z,55.58
2023-02-11T13:39:02.346Z,54.87
2023-02-11T13:41:33.404Z,55.15
2023-02-11T13:44:04.537Z,54.33
2023-02-11T13:46:59.152Z,57.36
2023-02-11T13:49:32.428Z,54.35
2023-02-11T13:52:02.314Z,53.40
2023-02-11T13:54:34.720Z,56.08
2023-02-11T13:57:32.658Z,56.64
2023-02-11T14:00:02.845Z,55.62
2023-02-11T14:02:51.055Z,60.50
2023-02-11T14:05:48.262Z,56.72
2023-02-11T14:08:42.547Z,57.93
2023-02-11T14:11:43.846Z,60.75
2023-02-11T14:14:25.797Z,57.09
2023-02-11T14:17:31.907Z,60.67
2023-02-11T14:20:00.892Z,55.90
2023-02-11T14:22:31.662Z,60.77
2023-02-11T14:25:01.920Z,57.60
2023-02-11T14:27:38.065Z,57.08
2023-02-11T14:30:16.056Z,58.74
2023-02-11T14:32:54.247Z,56.13
2023-02-11T14:35:27.230Z,56.22
2023-02-11T14:38:00.201Z,56.96
2023-02-11T14:40:32.056Z,55.48
2023-02-11T14:43:14.821Z,55.42
2023-02-11T14:45:45.656Z,56.62
2023-02-11T14:48:15.393Z,56.69
2023-02-11T14:50:46.764Z,56.19
2023-02-11T14:53:17.798Z,58.58
2023-02-11T14:55:48.625Z,62.29
2023-02-11T14:58:21.014Z,62.63
2023-02-11T15:00:55.334Z,63.94
2023-02-11T15:03:42.276Z,64.91
2023-02-11T15:06:18.464Z,64.61
2023-02-11T15:08:49.221Z,61.53
2023-02-11T15:11:19.711Z,58.22
2023-02-11T15:13:50.415Z,62.86
2023-02-11T15:16:20.768Z,61.31
2023-02-11T15:18:51.770Z,60.63
2023-02-11T15:21:24.282Z,59.01
2023-02-11T15:24:01.055Z,59.10
2023-02-11T15:26:30.039Z,60.78
2023-02-11T15:29:00.018Z,58.31
2023-02-11T15:31:29.815Z,58.06
2023-02-11T15:34:08.432Z,57.34
2023-02-11T15:36:36.963Z,56.96
2023-02-11T15:39:29.019Z,58.76
2023-02-11T15:41:57.406Z,55.93
2023-02-11T15:44:31.311Z,56.40
2023-02-11T15:47:00.150Z,56.09
2023-02-11T15:49:28.544Z,55.28
2023-02-11T15:51:58.988Z,57.24
2023-02-11T15:54:29.557Z,60.00
2023-02-11T15:57:00.489Z,59.14
2023-02-11T15:59:31.679Z,59.65
2023-02-11T16:02:07.934Z,57.98
2023-02-11T16:04:37.576Z,56.24
2023-02-11T16:07:06.626Z,58.25
2023-02-11T16:09:35.936Z,59.05
2023-02-11T16:12:07.559Z,60.16
2023-02-11T16:14:39.346Z,60.60
2023-02-11T16:17:09.085Z,57.94
2023-02-11T16:19:43.052Z,58.74
2023-02-11T16:22:13.187Z,56.98
2023-02-11T16:24:41.483Z,55.01
2023-02-11T16:27:21.096Z,54.31
2023-02-11T16:29:51.561Z,55.82
2023-02-11T16:32:20.950Z,64.94
2023-02-11T16:34:49.385Z,63.17
2023-02-11T16:37:18.158Z,59.37
2023-02-11T16:39:46.344Z,56.79
2023-02-11T16:42:14.575Z,57.22
2023-02-11T16:44:42.771Z,60.45
2023-02-11T16:47:18.744Z,60.90
2023-02-11T16:49:47.047Z,60.72
2023-02-11T16:52:16.876Z,59.22
2023-02-11T16:54:45.289Z,58.50
2023-02-11T16:57:15.781Z,57.64
2023-02-11T16:59:44.562Z,56.64
2023-02-11T17:02:17.075Z,56.22
2023-02-11T17:04:45.859Z,56.43
2023-02-11T17:07:14.272Z,57.66
2023-02-11T17:09:42.527Z,61.02
2023-02-11T17:12:10.759Z,64.73
2023-02-11T17:14:39.033Z,76.71
2023-02-11T17:17:08.056Z,78.30
2023-02-11T17:19:38.066Z,73.30
2023-02-11T17:22:06.669Z,69.84
2023-02-11T17:24:35.034Z,68.06
2023-02-11T17:27:03.290Z,64.89
2023-02-11T17:29:31.660Z,69.78
2023-02-11T17:32:00.020Z,65.50
2023-02-11T17:34:29.321Z,62.43
2023-02-11T17:37:00.267Z,62.82
2023-02-11T17:39:28.693Z,63.11
2023-02-11T17:41:56.969Z,63.48
2023-02-11T17:44:25.336Z,68.62
2023-02-11T17:46:53.655Z,64.26
2023-02-11T17:49:21.981Z,63.50
2023-02-11T17:51:50.377Z,64.65
2023-02-11T17:54:20.509Z,64.07
2023-02-11T17:56:50.884Z,77.92
2023-02-11T17:59:19.396Z,87.31
2023-02-11T18:01:47.887Z,84.93
2023-02-11T18:04:18.457Z,85.36
2023-02-11T18:06:46.615Z,88.29
2023-02-11T18:09:14.981Z,83.08
2023-02-11T18:11:44.722Z,85.25
2023-02-11T18:14:13.207Z,80.12
2023-02-11T18:16:43.640Z,82.37
2023-02-11T18:19:12.550Z,87.14
2023-02-11T18:21:41.583Z,90.95
2023-02-11T18:24:10.255Z,93.81
2023-02-11T18:26:38.745Z,95.72
2023-02-11T18:29:08.522Z,95.24
2023-02-11T18:31:37.309Z,96.97
2023-02-11T18:34:07.622Z,93.33
2023-02-11T18:36:36.611Z,95.97
2023-02-11T18:39:05.778Z,88.36
2023-02-11T18:41:34.158Z,92.26
2023-02-11T18:44:03.442Z,95.38
2023-02-11T18:46:33.292Z,98.11
2023-02-11T18:49:01.703Z,100.00
2023-02-11T18:51:32.352Z,100.00
2023-02-11T18:54:01.368Z,99.24
2023-02-11T18:56:29.758Z,100.00
2023-02-11T18:59:01.300Z,99.10
2023-02-11T19:01:31.212Z,100.00
2023-02-11T19:04:02.938Z,100.00
2023-02-11T19:06:33.778Z,100.00
2023-02-11T19:09:07.421Z,98.42
2023-02-11T19:11:54.379Z,94.62
2023-02-11T19:14:25.101Z,96.05
2023-02-11T19:16:54.912Z,96.16
2023-02-11T19:19:29.067Z,99.55
2023-02-11T19:21:57.863Z,100.00
2023-02-11T19:24:26.930Z,97.69
2023-02-11T19:26:57.784Z,97.85
2023-02-11T19:29:26.237Z,96.04
2023-02-11T19:31:54.937Z,97.79
2023-02-11T19:34:24.771Z,94.15
2023-02-11T19:36:54.215Z,97.12
2023-02-11T19:39:24.094Z,90.21
2023-02-11T19:41:52.579Z,88.07
2023-02-11T19:44:20.901Z,93.57
2023-02-11T19:46:50.270Z,99.55
2023-02-11T19:49:23.133Z,94.70
2023-02-11T19:51:53.874Z,92.85
2023-02-11T19:54:22.331Z,93.47
2023-02-11T19:56:50.929Z,98.22
2023-02-11T19:59:19.504Z,95.74
2023-02-11T20:01:49.036Z,93.95
2023-02-11T20:04:17.939Z,93.34
2023-02-11T20:06:48.095Z,83.53
2023-02-11T20:09:17.724Z,87.84
2023-02-11T20:11:46.008Z,80.58
2023-02-11T20:14:15.617Z,78.04
2023-02-11T20:16:49.065Z,74.66
2023-02-11T20:19:20.317Z,73.43
2023-02-11T20:21:50.656Z,72.46
2023-02-11T20:24:21.324Z,86.13
2023-02-11T20:26:49.557Z,87.31
2023-02-11T20:29:18.443Z,79.75
2023-02-11T20:31:47.064Z,71.87
2023-02-11T20:34:17.563Z,68.18
2023-02-11T20:36:51.542Z,67.84
2023-02-11T20:39:22.860Z,69.55
2023-02-11T20:41:51.733Z,69.70
2023-02-11T20:44:21.776Z,69.42
2023-02-11T20:46:50.286Z,71.52
2023-02-11T20:49:20.377Z,69.37
2023-02-11T20:51:49.139Z,69.70
2023-02-11T20:54:19.035Z,70.28
2023-02-11T20:56:50.718Z,71.93
2023-02-11T20:59:19.773Z,70.93
2023-02-11T21:01:49.872Z,71.19
2023-02-11T21:04:20.236Z,71.47
2023-02-11T21:06:49.777Z,70.40
2023-02-11T21:09:20.706Z,69.04
2023-02-11T21:11:51.586Z,68.42
2023-02-11T21:14:20.812Z,68.78
2023-02-11T21:16:49.610Z,71.07
2023-02-11T21:19:18.156Z,73.08
2023-02-11T21:21:46.548Z,83.76
2023-02-11T21:24:15.175Z,91.54
2023-02-11T21:26:44.201Z,86.62
2023-02-11T21:29:14.771Z,91.68
2023-02-11T21:31:43.536Z,92.26
2023-02-11T21:34:12.194Z,93.83
2023-02-11T21:36:41.154Z,98.89
2023-02-11T21:39:09.749Z,100.00
2023-02-11T21:41:38.117Z,100.00
2023-02-11T21:44:06.428Z,100.00
2023-02-11T21:46:36.210Z,100.00
2023-02-11T21:49:04.479Z,100.00
2023-02-11T21:51:32.822Z,100.00
2023-02-11T21:54:02.663Z,100.00
2023-02-11T21:56:32.142Z,100.00
2023-02-11T21:59:01.260Z,100.00
2023-02-11T22:01:31.202Z,100.00
2023-02-11T22:04:00.869Z,100.00
2023-02-11T22:06:31.770Z,100.00
2023-02-11T22:09:01.498Z,100.00
2023-02-11T22:11:29.965Z,100.00
2023-02-11T22:13:59.116Z,100.00
2023-02-11T22:16:31.490Z,100.00
2023-02-11T22:19:02.396Z,100.00
2023-02-11T22:21:30.933Z,100.00
2023-02-11T22:23:59.303Z,100.00
2023-02-11T22:26:28.489Z,100.00
2023-02-11T22:28:57.027Z,100.00
2023-02-11T22:31:27.511Z,100.00
2023-02-11T22:33:56.101Z,100.00
2023-02-11T22:36:27.197Z,100.00
2023-02-11T22:38:55.886Z,100.00
2023-02-11T22:41:24.272Z,100.00
2023-02-11T22:43:52.609Z,100.00
2023-02-11T22:46:21.009Z,100.00
2023-02-11T22:48:49.683Z,100.00
2023-02-11T22:51:19.409Z,100.00
2023-02-11T22:53:52.449Z,100.00
2023-02-11T22:56:21.021Z,100.00
2023-02-11T22:58:49.911Z,100.00
2023-02-11T23:01:18.653Z,100.00
2023-02-11T23:03:47.183Z,100.00
2023-02-11T23:06:15.700Z,100.00
2023-02-11T23:08:44.306Z,100.00
2023-02-11T23:11:18.114Z,100.00
2023-02-11T23:13:47.805Z,100.00
2023-02-11T23:16:17.824Z,97.15
2023-02-11T23:18:47.400Z,90.86
2023-02-11T23:21:17.753Z,87.45
2023-02-11T23:23:46.514Z,87.71
2023-02-11T23:26:18.932Z,83.83
2023-02-11T23:28:47.585Z,83.14
2023-02-11T23:31:17.610Z,80.48
2023-02-11T23:33:47.048Z,81.46
2023-02-11T23:36:16.632Z,83.29
2023-02-11T23:38:45.057Z,90.75
2023-02-11T23:41:13.381Z,100.00
2023-02-11T23:43:43.135Z,100.00
2023-02-11T23:46:12.039Z,100.00
2023-02-11T23:48:40.937Z,100.00
2023-02-11T23:51:10.113Z,100.00
2023-02-11T23:53:38.649Z,100.00
2023-02-11T23:56:08.704Z,100.00
2023-02-11T23:58:37.307Z,100.00
